createdAt,value
2023-03-19T00:00:37.981Z,21.73
2023-03-19T00:02:39.324Z,21.73
2023-03-19T00:04:40.869Z,21.72
2023-03-19T00:06:42.160Z,21.72
2023-03-19T00:08:43.466Z,21.66
2023-03-19T00:10:44.803Z,21.60
2023-03-19T00:12:46.537Z,21.57
2023-03-19T00:14:47.888Z,21.53
2023-03-19T00:16:49.336Z,21.49
2023-03-19T00:18:50.679Z,21.49
2023-03-19T00:20:52.418Z,21.49
2023-03-19T00:22:53.751Z,21.44
2023-03-19T00:24:55.064Z,21.42
2023-03-19T00:26:56.661Z,21.41
2023-03-19T00:28:57.985Z,21.35
2023-03-19T00:30:59.331Z,21.31
2023-03-19T00:33:02.320Z,21.29
2023-03-19T00:35:04.036Z,21.27
2023-03-19T00:37:05.338Z,21.25
2023-03-19T00:39:06.679Z,21.28
2023-03-19T00:41:08.051Z,21.29
2023-03-19T00:43:09.450Z,21.26
2023-03-19T00:45:10.818Z,21.27
2023-03-19T00:47:12.419Z,21.27
2023-03-19T00:49:13.732Z,21.28
2023-03-19T00:51:15.104Z,21.26
2023-03-19T00:53:16.421Z,21.24
2023-03-19T00:55:17.756Z,21.22
2023-03-19T00:57:19.063Z,21.21
2023-03-19T00:59:20.614Z,21.18
2023-03-19T01:01:22.016Z,21.19
2023-03-19T01:03:23.356Z,21.20
2023-03-19T01:05:24.679Z,21.22
2023-03-19T01:07:26.238Z,21.24
2023-03-19T01:09:27.531Z,21.24
2023-03-19T01:11:28.834Z,21.24
2023-03-19T01:13:30.599Z,21.26
2023-03-19T01:15:32.016Z,21.27
2023-03-19T01:17:33.537Z,21.30
2023-03-19T01:19:34.846Z,21.33
2023-03-19T01:21:36.568Z,21.36
2023-03-19T01:23:37.895Z,21.38
2023-03-19T01:25:39.195Z,21.41
2023-03-19T01:27:40.506Z,21.45
2023-03-19T01:29:41.833Z,21.45
2023-03-19T01:31:43.123Z,21.50
2023-03-19T01:33:44.460Z,21.54
2023-03-19T01:35:45.828Z,21.54
2023-03-19T01:37:47.174Z,21.54
2023-03-19T01:39:48.541Z,21.57
2023-03-19T01:41:49.851Z,21.55
2023-03-19T01:43:51.194Z,21.55
2023-03-19T01:45:52.528Z,21.55
2023-03-19T01:47:53.848Z,21.54
2023-03-19T01:49:55.317Z,21.54
2023-03-19T01:51:56.639Z,21.50
2023-03-19T01:53:57.925Z,21.46
2023-03-19T01:55:59.259Z,21.44
2023-03-19T01:58:02.200Z,21.41
2023-03-19T02:00:04.280Z,21.00
2023-03-19T02:02:05.631Z,21.40
2023-03-19T02:04:07.138Z,21.43
2023-03-19T02:06:08.944Z,21.45
2023-03-19T02:08:10.372Z,21.34
2023-03-19T02:10:11.911Z,21.30
2023-03-19T02:12:13.204Z,21.27
2023-03-19T02:14:14.513Z,21.26
2023-03-19T02:16:16.066Z,21.27
2023-03-19T02:18:17.434Z,21.29
2023-03-19T02:20:18.817Z,21.28
2023-03-19T02:22:20.596Z,21.27
2023-03-19T02:24:21.901Z,21.27
2023-03-19T02:26:23.210Z,21.24
2023-03-19T02:28:24.502Z,21.25
2023-03-19T02:30:26.110Z,21.26
2023-03-19T02:32:27.437Z,21.26
2023-03-19T02:34:28.766Z,21.26
2023-03-19T02:36:30.767Z,21.25
2023-03-19T02:38:32.056Z,21.26
2023-03-19T02:40:33.515Z,21.26
2023-03-19T02:42:35.396Z,21.27
2023-03-19T02:44:37.440Z,21.28
2023-03-19T02:46:38.803Z,21.30
2023-03-19T02:48:41.315Z,21.33
2023-03-19T02:50:42.723Z,21.36
2023-03-19T02:52:44.055Z,21.38
2023-03-19T02:54:45.394Z,21.42
2023-03-19T02:56:46.908Z,21.47
2023-03-19T02:58:48.230Z,21.49
2023-03-19T03:00:49.557Z,21.49
2023-03-19T03:02:50.904Z,21.53
2023-03-19T03:04:52.244Z,21.54
2023-03-19T03:06:54.094Z,21.49
2023-03-19T03:08:55.430Z,21.47
2023-03-19T03:10:56.911Z,21.47
2023-03-19T03:12:58.205Z,21.45
2023-03-19T03:14:59.564Z,20.52
2023-03-19T03:17:00.874Z,21.45
2023-03-19T03:19:02.553Z,21.41
2023-03-19T03:21:03.855Z,20.33
2023-03-19T03:23:05.377Z,21.36
2023-03-19T03:25:06.675Z,21.39
2023-03-19T03:27:08.268Z,21.40
2023-03-19T03:29:09.584Z,21.41
2023-03-19T03:31:10.960Z,21.39
2023-03-19T03:33:12.365Z,21.37
2023-03-19T03:35:15.892Z,21.38
2023-03-19T03:37:17.582Z,21.38
2023-03-19T03:39:19.544Z,21.36
2023-03-19T03:41:20.876Z,21.37
2023-03-19T03:43:22.211Z,21.37
2023-03-19T03:45:23.509Z,21.34
2023-03-19T03:47:24.840Z,21.35
2023-03-19T03:49:26.263Z,21.36
2023-03-19T03:51:27.678Z,21.37
2023-03-19T03:53:29.004Z,21.36
2023-03-19T03:55:30.292Z,21.37
2023-03-19T03:57:31.598Z,21.35
2023-03-19T03:59:32.957Z,21.35
2023-03-19T04:01:34.348Z,21.34
2023-03-19T04:03:35.767Z,21.36
2023-03-19T04:05:37.898Z,21.37
2023-03-19T04:07:39.716Z,21.39
2023-03-19T04:09:41.342Z,21.42
2023-03-19T04:11:42.692Z,21.44
2023-03-19T04:13:43.983Z,21.46
2023-03-19T04:15:45.315Z,21.50
2023-03-19T04:17:47.303Z,21.51
2023-03-19T04:19:48.622Z,21.55
2023-03-19T04:21:49.948Z,21.60
2023-03-19T04:23:51.294Z,21.59
2023-03-19T04:25:52.604Z,21.61
2023-03-19T04:27:53.940Z,21.63
2023-03-19T04:29:55.549Z,21.62
2023-03-19T04:31:57.051Z,21.63
2023-03-19T04:33:58.458Z,21.62
2023-03-19T04:35:59.825Z,21.62
2023-03-19T04:38:01.141Z,21.60
2023-03-19T04:40:02.495Z,21.58
2023-03-19T04:42:04.570Z,21.53
2023-03-19T04:44:06.005Z,21.53
2023-03-19T04:46:08.191Z,21.51
2023-03-19T04:48:09.569Z,21.50
2023-03-19T04:50:10.912Z,21.50
2023-03-19T04:52:12.243Z,21.48
2023-03-19T04:54:13.814Z,21.49
2023-03-19T04:56:16.544Z,21.47
2023-03-19T04:58:18.073Z,21.48
2023-03-19T05:00:20.694Z,21.49
2023-03-19T05:02:22.065Z,21.45
2023-03-19T05:04:24.015Z,21.43
2023-03-19T05:06:27.261Z,21.47
2023-03-19T05:08:28.964Z,21.46
2023-03-19T05:10:30.356Z,21.44
2023-03-19T05:12:32.032Z,21.43
2023-03-19T05:14:33.360Z,21.43
2023-03-19T05:16:35.672Z,21.43
2023-03-19T05:18:37.901Z,21.43
2023-03-19T05:20:40.760Z,21.47
2023-03-19T05:22:42.309Z,21.47
2023-03-19T05:24:43.652Z,21.47
2023-03-19T05:26:44.980Z,21.45
2023-03-19T05:28:46.280Z,21.46
2023-03-19T05:30:47.636Z,21.44
2023-03-19T05:32:48.962Z,21.50
2023-03-19T05:34:50.277Z,21.52
2023-03-19T05:36:51.902Z,21.55
2023-03-19T05:38:53.420Z,21.57
2023-03-19T05:40:54.717Z,21.57
2023-03-19T05:42:56.015Z,21.60
2023-03-19T05:44:57.323Z,21.64
2023-03-19T05:46:58.612Z,21.63
2023-03-19T05:49:00.149Z,21.63
2023-03-19T05:51:01.970Z,21.63
2023-03-19T05:53:03.564Z,21.63
2023-03-19T05:55:04.882Z,21.63
2023-03-19T05:57:06.706Z,21.61
2023-03-19T05:59:08.292Z,21.60
2023-03-19T06:01:09.743Z,21.56
2023-03-19T06:03:11.194Z,21.56
2023-03-19T06:05:12.539Z,21.59
2023-03-19T06:07:13.843Z,21.57
2023-03-19T06:09:15.403Z,21.54
2023-03-19T06:11:16.844Z,21.51
2023-03-19T06:13:18.163Z,21.53
2023-03-19T06:15:19.508Z,21.54
2023-03-19T06:17:21.103Z,21.53
2023-03-19T06:19:23.049Z,21.52
2023-03-19T06:21:29.548Z,21.48
2023-03-19T06:23:30.924Z,21.49
2023-03-19T06:25:32.236Z,21.47
2023-03-19T06:27:33.568Z,21.46
2023-03-19T06:29:34.872Z,21.45
2023-03-19T06:31:39.359Z,21.43
2023-03-19T06:33:41.156Z,21.46
2023-03-19T06:35:42.522Z,21.48
2023-03-19T06:37:43.870Z,21.48
2023-03-19T06:39:45.206Z,21.49
2023-03-19T06:41:46.624Z,21.54
2023-03-19T06:43:48.010Z,21.55
2023-03-19T06:45:49.389Z,21.52
2023-03-19T06:47:53.456Z,21.49
2023-03-19T06:49:54.916Z,21.48
2023-03-19T06:51:56.210Z,21.45
2023-03-19T06:53:57.511Z,21.40
2023-03-19T06:55:58.808Z,21.38
2023-03-19T06:58:00.382Z,21.32
2023-03-19T07:00:01.771Z,21.32
2023-03-19T07:02:03.245Z,21.30
2023-03-19T07:04:04.597Z,21.33
2023-03-19T07:06:07.245Z,21.39
2023-03-19T07:08:11.991Z,21.45
2023-03-19T07:10:14.037Z,21.51
2023-03-19T07:12:15.328Z,21.60
2023-03-19T07:14:16.615Z,21.65
2023-03-19T07:16:17.958Z,21.68
2023-03-19T07:18:19.273Z,21.71
2023-03-19T07:20:20.855Z,21.74
2023-03-19T07:22:22.525Z,21.75
2023-03-19T07:24:23.824Z,21.73
2023-03-19T07:26:25.757Z,21.73
2023-03-19T07:28:27.115Z,21.76
2023-03-19T07:30:28.413Z,21.77
2023-03-19T07:32:29.720Z,21.74
2023-03-19T07:34:31.063Z,21.72
2023-03-19T07:36:32.401Z,21.71
2023-03-19T07:38:33.711Z,21.78
2023-03-19T07:40:35.398Z,21.84
2023-03-19T07:42:36.913Z,21.83
2023-03-19T07:44:38.320Z,21.81
2023-03-19T07:46:39.621Z,21.72
2023-03-19T07:48:41.032Z,21.68
2023-03-19T07:50:42.349Z,21.62
2023-03-19T07:52:43.685Z,20.46
2023-03-19T07:54:44.981Z,21.49
2023-03-19T07:56:46.797Z,21.47
2023-03-19T07:58:48.116Z,21.57
2023-03-19T08:00:49.410Z,21.64
2023-03-19T08:02:50.986Z,21.47
2023-03-19T08:04:52.379Z,21.34
2023-03-19T08:06:53.737Z,21.26
2023-03-19T08:08:55.053Z,21.20
2023-03-19T08:10:56.639Z,21.16
2023-03-19T08:12:58.112Z,21.14
2023-03-19T08:14:59.400Z,21.12
2023-03-19T08:17:00.836Z,21.09
2023-03-19T08:19:02.296Z,21.08
2023-03-19T08:21:03.942Z,21.07
2023-03-19T08:23:05.279Z,21.07
2023-03-19T08:25:06.893Z,21.07
2023-03-19T08:27:08.271Z,21.07
2023-03-19T08:29:12.501Z,21.11
2023-03-19T08:31:13.857Z,21.14
2023-03-19T08:33:15.252Z,21.19
2023-03-19T08:35:16.750Z,21.24
2023-03-19T08:37:18.040Z,21.29
2023-03-19T08:39:19.361Z,21.36
2023-03-19T08:41:20.757Z,21.40
2023-03-19T08:43:22.205Z,21.43
2023-03-19T08:45:23.693Z,21.44
2023-03-19T08:47:25.057Z,21.47
2023-03-19T08:49:26.346Z,21.49
2023-03-19T08:51:28.357Z,21.51
2023-03-19T08:53:29.679Z,21.50
2023-03-19T08:55:31.024Z,21.51
2023-03-19T08:57:32.337Z,19.92
2023-03-19T08:59:34.379Z,19.00
2023-03-19T09:01:36.496Z,19.08
2023-03-19T09:03:37.823Z,19.21
2023-03-19T09:05:39.193Z,19.26
2023-03-19T09:07:40.597Z,19.54
2023-03-19T09:09:41.898Z,19.88
2023-03-19T09:11:43.197Z,21.14
2023-03-19T09:13:44.502Z,22.24
2023-03-19T09:15:45.833Z,22.70
2023-03-19T09:17:47.130Z,22.93
2023-03-19T09:19:48.503Z,22.37
2023-03-19T09:21:50.358Z,22.19
2023-03-19T09:23:52.807Z,22.19
2023-03-19T09:25:54.179Z,22.24
2023-03-19T09:27:55.616Z,22.28
2023-03-19T09:29:56.921Z,22.91
2023-03-19T09:31:58.284Z,22.78
2023-03-19T09:33:59.631Z,22.53
2023-03-19T09:36:02.270Z,22.56
2023-03-19T09:38:03.659Z,22.51
2023-03-19T09:40:05.426Z,22.49
2023-03-19T09:42:06.943Z,22.41
2023-03-19T09:44:08.253Z,22.70
2023-03-19T09:46:09.613Z,22.64
2023-03-19T09:48:10.947Z,22.65
2023-03-19T09:50:12.442Z,23.15
2023-03-19T09:52:19.501Z,22.85
2023-03-19T09:54:21.208Z,22.65
2023-03-19T09:56:22.531Z,22.99
2023-03-19T09:58:23.832Z,22.90
2023-03-19T10:00:25.601Z,22.99
2023-03-19T10:02:26.904Z,23.35
2023-03-19T10:04:28.214Z,23.40
2023-03-19T10:06:29.669Z,23.22
2023-03-19T10:08:32.012Z,23.33
2023-03-19T10:10:33.455Z,23.23
2023-03-19T10:12:35.112Z,22.94
2023-03-19T10:14:36.815Z,22.50
2023-03-19T10:16:38.154Z,22.22
2023-03-19T10:18:39.545Z,22.06
2023-03-19T10:20:41.180Z,21.97
2023-03-19T10:22:42.515Z,21.90
2023-03-19T10:24:43.809Z,21.85
2023-03-19T10:26:45.801Z,21.82
2023-03-19T10:28:47.417Z,21.76
2023-03-19T10:30:48.764Z,21.71
2023-03-19T10:32:50.104Z,21.69
2023-03-19T10:34:53.905Z,21.64
2023-03-19T10:36:55.331Z,21.64
2023-03-19T10:38:56.843Z,21.60
2023-03-19T10:40:58.179Z,21.55
2023-03-19T10:42:59.469Z,21.51
2023-03-19T10:45:01.102Z,21.45
2023-03-19T10:47:02.429Z,21.42
2023-03-19T10:49:03.729Z,21.38
2023-03-19T10:51:07.696Z,21.35
2023-03-19T10:53:09.064Z,20.61
2023-03-19T10:55:10.373Z,21.36
2023-03-19T10:57:11.712Z,21.38
2023-03-19T10:59:13.019Z,21.41
2023-03-19T11:01:14.357Z,21.39
2023-03-19T11:03:15.937Z,21.38
2023-03-19T11:05:17.224Z,21.38
2023-03-19T11:07:18.601Z,21.39
2023-03-19T11:09:22.812Z,21.39
2023-03-19T11:11:24.661Z,21.42
2023-03-19T11:13:26.170Z,21.47
2023-03-19T11:15:30.264Z,21.51
2023-03-19T11:17:35.335Z,21.57
2023-03-19T11:19:36.929Z,21.60
2023-03-19T11:21:38.230Z,21.63
2023-03-19T11:23:39.530Z,21.68
2023-03-19T11:25:42.328Z,21.70
2023-03-19T11:27:43.658Z,21.71
2023-03-19T11:29:44.978Z,21.69
2023-03-19T11:31:46.291Z,21.65
2023-03-19T11:33:48.327Z,21.62
2023-03-19T11:35:49.685Z,21.58
2023-03-19T11:37:52.018Z,21.53
2023-03-19T11:39:54.121Z,21.51
2023-03-19T11:41:55.521Z,21.53
2023-03-19T11:43:57.583Z,21.54
2023-03-19T11:45:59.331Z,21.52
2023-03-19T11:48:00.727Z,21.54
2023-03-19T11:50:02.035Z,21.58
2023-03-19T11:52:03.344Z,21.54
2023-03-19T11:54:04.641Z,21.47
2023-03-19T11:56:07.989Z,21.42
2023-03-19T11:58:09.367Z,21.38
2023-03-19T12:00:13.459Z,21.39
2023-03-19T12:02:14.770Z,21.43
2023-03-19T12:04:18.760Z,21.48
2023-03-19T12:06:20.059Z,21.49
2023-03-19T12:08:24.623Z,21.47
2023-03-19T12:10:26.041Z,21.50
2023-03-19T12:12:27.377Z,21.57
2023-03-19T12:14:28.715Z,21.54
2023-03-19T12:16:31.400Z,21.51
2023-03-19T12:18:32.696Z,21.46
2023-03-19T12:20:34.004Z,21.41
2023-03-19T12:22:36.343Z,21.40
2023-03-19T12:24:38.004Z,21.40
2023-03-19T12:26:39.316Z,21.39
2023-03-19T12:28:40.666Z,21.36
2023-03-19T12:30:41.985Z,21.34
2023-03-19T12:32:43.578Z,21.32
2023-03-19T12:34:45.280Z,21.30
2023-03-19T12:36:47.109Z,21.27
2023-03-19T12:38:48.638Z,21.28
2023-03-19T12:40:49.951Z,21.29
2023-03-19T12:42:51.947Z,21.30
2023-03-19T12:44:53.245Z,21.29
2023-03-19T12:46:56.142Z,21.35
2023-03-19T12:48:59.259Z,21.44
2023-03-19T12:51:00.944Z,21.39
2023-03-19T12:53:02.254Z,21.36
2023-03-19T12:55:04.467Z,21.36
2023-03-19T12:57:05.787Z,21.34
2023-03-19T12:59:07.393Z,21.34
2023-03-19T13:01:09.115Z,21.35
2023-03-19T13:03:10.454Z,21.33
2023-03-19T13:05:12.796Z,21.33
2023-03-19T13:07:14.099Z,21.34
2023-03-19T13:09:15.434Z,21.35
2023-03-19T13:11:16.880Z,21.42
2023-03-19T13:13:18.211Z,21.42
2023-03-19T13:15:19.557Z,21.41
2023-03-19T13:17:21.604Z,21.43
2023-03-19T13:19:22.972Z,21.46
2023-03-19T13:21:24.686Z,21.45
2023-03-19T13:23:26.464Z,21.44
2023-03-19T13:25:27.785Z,21.46
2023-03-19T13:27:29.085Z,21.47
2023-03-19T13:29:30.494Z,21.48
2023-03-19T13:31:31.881Z,21.53
2023-03-19T13:33:33.235Z,21.65
2023-03-19T13:35:40.601Z,21.69
2023-03-19T13:37:42.070Z,21.69
2023-03-19T13:39:43.511Z,21.69
2023-03-19T13:41:44.819Z,21.63
2023-03-19T13:43:46.573Z,21.61
2023-03-19T13:45:47.885Z,21.58
2023-03-19T13:47:49.296Z,21.55
2023-03-19T13:49:50.596Z,21.51
2023-03-19T13:51:51.904Z,21.51
2023-03-19T13:53:56.198Z,21.51
2023-03-19T13:55:57.480Z,21.50
2023-03-19T13:58:12.284Z,21.49
2023-03-19T14:00:13.604Z,21.48
2023-03-19T14:02:14.920Z,21.49
2023-03-19T14:04:16.509Z,21.48
2023-03-19T14:06:17.814Z,21.50
2023-03-19T14:08:19.835Z,21.50
2023-03-19T14:10:21.126Z,21.52
2023-03-19T14:12:22.482Z,21.53
2023-03-19T14:14:23.830Z,21.58
2023-03-19T14:16:25.757Z,21.42
2023-03-19T14:18:27.083Z,21.30
2023-03-19T14:20:37.389Z,21.22
2023-03-19T14:22:42.090Z,21.84
2023-03-19T14:24:59.704Z,22.11
2023-03-19T14:27:01.056Z,22.30
2023-03-19T14:29:02.687Z,22.57
2023-03-19T14:31:04.400Z,22.65
2023-03-19T14:33:06.958Z,22.97
2023-03-19T14:35:08.301Z,22.39
2023-03-19T14:37:09.614Z,22.33
2023-03-19T14:39:10.981Z,22.76
2023-03-19T14:41:12.278Z,22.89
2023-03-19T14:43:13.572Z,22.66
2023-03-19T14:45:14.906Z,22.83
2023-03-19T14:47:16.982Z,22.65
2023-03-19T14:49:18.296Z,22.81
2023-03-19T14:51:20.387Z,22.46
2023-03-19T14:53:21.680Z,23.36
2023-03-19T14:55:23.154Z,23.12
2023-03-19T14:57:24.458Z,23.18
2023-03-19T14:59:25.783Z,22.79
2023-03-19T15:01:27.312Z,22.21
2023-03-19T15:03:28.702Z,21.92
2023-03-19T15:05:30.053Z,21.75
2023-03-19T15:07:31.531Z,21.68
2023-03-19T15:09:33.076Z,21.65
2023-03-19T15:11:34.418Z,21.61
2023-03-19T15:13:35.768Z,21.58
2023-03-19T15:15:44.383Z,21.55
2023-03-19T15:17:51.706Z,21.54
2023-03-19T15:19:58.923Z,21.53
2023-03-19T15:22:00.270Z,21.53
2023-03-19T15:24:04.598Z,21.52
2023-03-19T15:26:08.738Z,21.50
2023-03-19T15:28:13.858Z,21.51
2023-03-19T15:30:18.697Z,21.48
2023-03-19T15:32:20.330Z,21.46
2023-03-19T15:34:21.907Z,21.47
2023-03-19T15:36:24.056Z,21.45
2023-03-19T15:38:31.203Z,21.44
2023-03-19T15:40:32.707Z,21.44
2023-03-19T15:42:34.112Z,21.34
2023-03-19T15:44:36.478Z,21.33
2023-03-19T15:46:40.543Z,21.33
2023-03-19T15:48:42.302Z,21.32
2023-03-19T15:50:44.366Z,21.32
2023-03-19T15:52:51.591Z,21.31
2023-03-19T15:54:52.881Z,21.30
2023-03-19T15:56:54.225Z,21.30
2023-03-19T15:58:55.523Z,21.29
2023-03-19T16:00:56.839Z,21.28
2023-03-19T16:02:58.169Z,21.28
2023-03-19T16:05:22.479Z,21.24
2023-03-19T16:07:20.943Z,21.23
2023-03-19T16:09:22.314Z,21.24
2023-03-19T16:11:23.643Z,21.22
2023-03-19T16:13:25.699Z,21.21
2023-03-19T16:15:27.602Z,22.08
2023-03-19T16:17:28.896Z,22.61
2023-03-19T16:19:31.392Z,22.76
2023-03-19T16:21:33.898Z,22.55
2023-03-19T16:23:35.647Z,22.40
2023-03-19T16:25:37.198Z,22.38
2023-03-19T16:27:38.502Z,22.38
2023-03-19T16:29:39.822Z,23.02
2023-03-19T16:31:41.231Z,22.76
2023-03-19T16:33:42.528Z,22.63
2023-03-19T16:35:44.822Z,22.59
2023-03-19T16:39:50.172Z,22.23
2023-03-19T16:41:51.541Z,22.50
2023-03-19T16:43:52.891Z,22.58
2023-03-19T16:45:54.203Z,22.64
2023-03-19T16:47:55.619Z,22.70
2023-03-19T16:49:56.909Z,22.66
2023-03-19T16:53:59.570Z,22.47
2023-03-19T16:56:01.589Z,22.58
2023-03-19T16:58:05.695Z,22.56
2023-03-19T17:00:07.748Z,22.48
2023-03-19T17:02:09.092Z,22.26
2023-03-19T17:04:14.198Z,22.90
2023-03-19T17:06:15.934Z,22.68
2023-03-19T17:08:17.309Z,22.65
2023-03-19T17:10:18.640Z,23.04
2023-03-19T17:12:19.980Z,22.75
2023-03-19T17:14:21.831Z,22.83
2023-03-19T17:16:23.207Z,23.28
2023-03-19T17:18:24.698Z,22.91
2023-03-19T17:20:26.381Z,22.61
2023-03-19T17:22:27.718Z,22.27
2023-03-19T17:24:29.190Z,22.14
2023-03-19T17:26:30.624Z,22.75
2023-03-19T17:28:32.478Z,22.92
2023-03-19T17:30:34.130Z,22.82
2023-03-19T17:32:38.444Z,23.05
2023-03-19T17:34:40.147Z,22.81
2023-03-19T17:36:41.752Z,22.65
2023-03-19T17:38:43.074Z,22.59
2023-03-19T17:40:44.393Z,22.56
2023-03-19T17:42:45.953Z,22.55
2023-03-19T17:44:47.294Z,22.53
2023-03-19T17:46:49.828Z,22.66
2023-03-19T17:48:51.432Z,22.67
2023-03-19T17:50:52.779Z,22.56
2023-03-19T17:53:00.125Z,22.51
2023-03-19T17:57:02.888Z,22.55
2023-03-19T17:59:04.320Z,22.53
2023-03-19T18:01:05.855Z,22.54
2023-03-19T18:03:07.227Z,22.57
2023-03-19T18:05:08.732Z,22.19
2023-03-19T18:07:10.222Z,21.96
2023-03-19T18:09:11.525Z,21.81
2023-03-19T18:11:12.886Z,21.72
2023-03-19T18:13:14.290Z,21.66
2023-03-19T18:15:15.722Z,21.63
2023-03-19T18:17:17.057Z,21.61
2023-03-19T18:19:21.268Z,21.55
2023-03-19T18:21:22.719Z,21.52
2023-03-19T18:23:24.859Z,21.49
2023-03-19T18:25:26.206Z,21.46
2023-03-19T18:27:27.592Z,21.45
2023-03-19T18:29:28.900Z,21.44
2023-03-19T18:31:30.490Z,21.45
2023-03-19T18:33:31.824Z,21.44
2023-03-19T18:35:33.854Z,21.44
2023-03-19T18:37:36.160Z,21.46
2023-03-19T18:39:38.551Z,21.45
2023-03-19T18:41:40.019Z,21.39
2023-03-19T18:43:41.312Z,21.38
2023-03-19T18:45:42.639Z,21.41
2023-03-19T18:47:46.666Z,21.63
2023-03-19T18:49:50.900Z,22.26
2023-03-19T18:52:03.485Z,22.31
2023-03-19T18:54:05.116Z,22.35
2023-03-19T18:56:07.873Z,22.44
2023-03-19T18:58:09.170Z,22.49
2023-03-19T19:00:10.665Z,22.51
2023-03-19T19:02:11.960Z,22.54
2023-03-19T19:04:13.373Z,21.71
2023-03-19T19:06:14.662Z,22.58
2023-03-19T19:08:16.192Z,22.63
2023-03-19T19:10:17.596Z,22.62
2023-03-19T19:12:19.048Z,22.58
2023-03-19T19:14:24.194Z,22.55
2023-03-19T19:16:25.565Z,22.57
2023-03-19T19:18:26.967Z,22.58
2023-03-19T19:20:31.052Z,22.59
2023-03-19T19:22:32.354Z,22.61
2023-03-19T19:24:33.689Z,22.62
2023-03-19T19:26:36.400Z,22.58
2023-03-19T19:28:40.800Z,22.38
2023-03-19T19:30:47.040Z,22.51
2023-03-19T19:32:48.511Z,22.52
2023-03-19T19:34:49.851Z,22.51
2023-03-19T19:36:52.418Z,22.52
2023-03-19T19:38:53.761Z,22.51
2023-03-19T19:40:55.210Z,22.61
2023-03-19T19:42:56.544Z,22.65
2023-03-19T19:45:01.510Z,22.59
2023-03-19T19:47:09.238Z,22.81
2023-03-19T19:49:12.077Z,22.88
2023-03-19T19:51:13.538Z,22.79
2023-03-19T19:53:15.205Z,22.75
2023-03-19T19:55:16.559Z,22.69
2023-03-19T19:57:27.096Z,22.75
2023-03-19T19:59:28.404Z,22.89
2023-03-19T20:01:32.888Z,22.90
2023-03-19T20:03:37.900Z,22.85
2023-03-19T20:05:39.266Z,22.40
2023-03-19T20:07:40.807Z,22.13
2023-03-19T20:09:42.127Z,22.30
2023-03-19T20:11:43.710Z,22.36
2023-03-19T20:13:49.143Z,22.44
2023-03-19T20:15:53.647Z,22.50
2023-03-19T20:17:55.076Z,22.86
2023-03-19T20:19:56.400Z,22.71
2023-03-19T20:21:57.731Z,22.63
2023-03-19T20:23:59.080Z,22.67
2023-03-19T20:26:01.769Z,22.79
2023-03-19T20:28:03.527Z,22.73
2023-03-19T20:30:05.135Z,22.75
2023-03-19T20:32:06.630Z,22.71
2023-03-19T20:34:07.929Z,22.70
2023-03-19T20:36:13.444Z,22.69
2023-03-19T20:38:14.812Z,22.70
2023-03-19T20:40:16.304Z,22.80
2023-03-19T20:42:17.589Z,22.87
2023-03-19T20:44:18.924Z,22.77
2023-03-19T20:46:20.461Z,22.64
2023-03-19T20:48:22.199Z,22.31
2023-03-19T20:50:23.799Z,22.11
2023-03-19T20:52:25.902Z,21.96
2023-03-19T20:54:27.791Z,21.85
2023-03-19T20:56:30.812Z,21.74
2023-03-19T20:58:33.568Z,22.12
2023-03-19T21:00:34.892Z,22.35
2023-03-19T21:02:36.228Z,22.45
2023-03-19T21:04:37.528Z,22.48
2023-03-19T21:06:52.393Z,22.54
2023-03-19T21:08:57.131Z,22.55
2023-03-19T21:10:58.491Z,22.57
2023-03-19T21:12:59.844Z,22.58
2023-03-19T21:15:02.210Z,22.76
2023-03-19T21:17:03.541Z,20.87
2023-03-19T21:19:05.602Z,19.66
2023-03-19T21:21:07.778Z,20.46
2023-03-19T21:23:09.140Z,21.40
2023-03-19T21:25:10.902Z,21.87
2023-03-19T21:27:12.196Z,21.92
2023-03-19T21:29:14.119Z,21.82
2023-03-19T21:31:18.017Z,21.76
2023-03-19T21:33:19.709Z,21.73
2023-03-19T21:35:21.116Z,21.71
2023-03-19T21:37:22.448Z,21.75
2023-03-19T21:39:23.820Z,21.78
2023-03-19T21:41:26.063Z,21.80
2023-03-19T21:43:27.847Z,21.81
2023-03-19T21:45:29.183Z,21.84
2023-03-19T21:47:30.479Z,21.84
2023-03-19T21:49:31.792Z,21.86
2023-03-19T21:51:33.088Z,21.84
2023-03-19T21:53:34.380Z,21.84
2023-03-19T21:55:35.835Z,21.82
2023-03-19T21:57:37.298Z,21.79
2023-03-19T21:59:38.681Z,21.77
2023-03-19T22:01:40.608Z,21.75
2023-03-19T22:03:41.981Z,21.73
2023-03-19T22:05:43.341Z,21.72
2023-03-19T22:07:44.675Z,21.69
2023-03-19T22:09:45.991Z,21.65
2023-03-19T22:11:47.349Z,21.63
2023-03-19T22:13:48.764Z,21.60
2023-03-19T22:15:50.537Z,21.57
2023-03-19T22:17:51.866Z,21.52
2023-03-19T22:19:53.300Z,21.48
2023-03-19T22:21:55.219Z,21.45
2023-03-19T22:23:56.702Z,21.44
2023-03-19T22:25:58.022Z,21.42
2023-03-19T22:27:59.579Z,21.41
2023-03-19T22:30:00.982Z,21.39
2023-03-19T22:32:02.347Z,21.39
2023-03-19T22:34:03.812Z,21.39
2023-03-19T22:36:05.255Z,21.39
2023-03-19T22:38:06.591Z,21.39
2023-03-19T22:40:07.897Z,21.35
2023-03-19T22:42:09.188Z,21.31
2023-03-19T22:44:10.508Z,21.29
2023-03-19T22:46:12.136Z,21.27
2023-03-19T22:48:13.595Z,21.26
2023-03-19T22:50:14.920Z,21.25
2023-03-19T22:52:16.256Z,21.25
2023-03-19T22:54:17.556Z,21.22
2023-03-19T22:56:18.852Z,21.23
2023-03-19T22:58:20.464Z,21.25
2023-03-19T23:00:23.488Z,21.24
2023-03-19T23:02:25.002Z,21.24
2023-03-19T23:04:26.541Z,21.25
2023-03-19T23:06:30.941Z,21.25
2023-03-19T23:08:32.515Z,20.99
2023-03-19T23:10:33.860Z,21.24
2023-03-19T23:12:35.168Z,21.25
2023-03-19T23:14:36.943Z,21.27
2023-03-19T23:16:38.590Z,21.29
2023-03-19T23:18:40.297Z,21.31
2023-03-19T23:20:41.911Z,21.35
2023-03-19T23:22:43.807Z,21.37
2023-03-19T23:24:45.124Z,21.52
2023-03-19T23:26:46.426Z,21.57
2023-03-19T23:28:48.682Z,21.51
2023-03-19T23:30:50.296Z,21.49
2023-03-19T23:32:52.674Z,21.52
2023-03-19T23:35:00.577Z,21.51
2023-03-19T23:37:02.881Z,21.50
2023-03-19T23:39:04.225Z,21.50
2023-03-19T23:41:06.079Z,21.48
2023-03-19T23:43:07.735Z,21.46
2023-03-19T23:45:09.032Z,21.45
2023-03-19T23:47:10.868Z,21.45
2023-03-19T23:49:12.269Z,21.43
2023-03-19T23:51:14.064Z,21.42
2023-03-19T23:53:15.364Z,21.40
2023-03-19T23:55:16.979Z,21.39
2023-03-19T23:57:18.301Z,21.41
2023-03-19T23:59:19.638Z,21.41
